sensor_id;sensor_type;location;lat;lon;timestamp;temperature;humidity
21108;DHT22;10712;52.944;9.098;2023-08-07T00:00:53;15.90;91.30
21108;DHT22;10712;52.944;9.098;2023-08-07T00:03:19;15.90;91.20
21108;DHT22;10712;52.944;9.098;2023-08-07T00:05:46;15.90;91.00
21108;DHT22;10712;52.944;9.098;2023-08-07T00:08:12;15.80;91.10
21108;DHT22;10712;52.944;9.098;2023-08-07T00:10:38;15.80;91.20
21108;DHT22;10712;52.944;9.098;2023-08-07T00:13:05;15.80;91.30
21108;DHT22;10712;52.944;9.098;2023-08-07T00:15:30;15.80;91.40
21108;DHT22;10712;52.944;9.098;2023-08-07T00:17:59;15.80;91.50
21108;DHT22;10712;52.944;9.098;2023-08-07T00:20:25;15.80;91.60
21108;DHT22;10712;52.944;9.098;2023-08-07T00:22:50;15.80;91.50
21108;DHT22;10712;52.944;9.098;2023-08-07T00:25:16;15.80;91.50
21108;DHT22;10712;52.944;9.098;2023-08-07T00:27:42;15.80;91.60
21108;DHT22;10712;52.944;9.098;2023-08-07T00:30:08;15.80;91.40
21108;DHT22;10712;52.944;9.098;2023-08-07T00:32:34;15.80;91.60
21108;DHT22;10712;52.944;9.098;2023-08-07T00:35:00;15.70;91.70
21108;DHT22;10712;52.944;9.098;2023-08-07T00:37:26;15.70;91.70
21108;DHT22;10712;52.944;9.098;2023-08-07T00:39:52;15.70;91.80
21108;DHT22;10712;52.944;9.098;2023-08-07T00:42:17;15.70;92.00
21108;DHT22;10712;52.944;9.098;2023-08-07T00:44:43;15.70;91.90
21108;DHT22;10712;52.944;9.098;2023-08-07T00:47:09;15.70;91.90
21108;DHT22;10712;52.944;9.098;2023-08-07T00:49:36;15.70;92.00
21108;DHT22;10712;52.944;9.098;2023-08-07T00:52:02;15.70;92.10
21108;DHT22;10712;52.944;9.098;2023-08-07T00:54:28;15.70;92.20
21108;DHT22;10712;52.944;9.098;2023-08-07T00:56:55;15.70;92.20
21108;DHT22;10712;52.944;9.098;2023-08-07T00:59:26;15.70;92.20
21108;DHT22;10712;52.944;9.098;2023-08-07T01:01:52;15.70;92.30
21108;DHT22;10712;52.944;9.098;2023-08-07T01:04:18;15.80;92.30
21108;DHT22;10712;52.944;9.098;2023-08-07T01:06:43;15.80;92.30
21108;DHT22;10712;52.944;9.098;2023-08-07T01:09:09;15.70;92.30
21108;DHT22;10712;52.944;9.098;2023-08-07T01:11:49;15.70;92.30
21108;DHT22;10712;52.944;9.098;2023-08-07T01:14:31;15.70;92.30
21108;DHT22;10712;52.944;9.098;2023-08-07T01:17:22;15.70;92.30
21108;DHT22;10712;52.944;9.098;2023-08-07T01:19:51;15.80;92.30
21108;DHT22;10712;52.944;9.098;2023-08-07T01:22:18;15.80;92.30
21108;DHT22;10712;52.944;9.098;2023-08-07T01:24:47;15.70;92.30
21108;DHT22;10712;52.944;9.098;2023-08-07T01:30:30;15.70;92.20
21108;DHT22;10712;52.944;9.098;2023-08-07T01:35:45;15.70;92.30
21108;DHT22;10712;52.944;9.098;2023-08-07T01:38:15;15.70;92.40
21108;DHT22;10712;52.944;9.098;2023-08-07T01:40:42;15.60;92.40
21108;DHT22;10712;52.944;9.098;2023-08-07T01:43:09;15.60;92.40
21108;DHT22;10712;52.944;9.098;2023-08-07T01:45:35;15.60;92.40
21108;DHT22;10712;52.944;9.098;2023-08-07T01:48:01;15.60;92.30
21108;DHT22;10712;52.944;9.098;2023-08-07T01:50:28;15.60;92.30
21108;DHT22;10712;52.944;9.098;2023-08-07T01:52:54;15.60;92.30
21108;DHT22;10712;52.944;9.098;2023-08-07T01:55:21;15.50;92.40
21108;DHT22;10712;52.944;9.098;2023-08-07T01:57:50;15.50;92.50
21108;DHT22;10712;52.944;9.098;2023-08-07T02:00:16;15.50;92.50
21108;DHT22;10712;52.944;9.098;2023-08-07T02:02:42;15.50;92.60
21108;DHT22;10712;52.944;9.098;2023-08-07T02:05:10;15.50;92.60
21108;DHT22;10712;52.944;9.098;2023-08-07T02:07:35;15.50;92.60
21108;DHT22;10712;52.944;9.098;2023-08-07T02:10:02;15.50;92.50
21108;DHT22;10712;52.944;9.098;2023-08-07T02:12:28;15.50;92.50
21108;DHT22;10712;52.944;9.098;2023-08-07T02:14:59;15.50;92.60
21108;DHT22;10712;52.944;9.098;2023-08-07T02:17:26;15.50;92.60
21108;DHT22;10712;52.944;9.098;2023-08-07T02:19:53;15.50;92.60
21108;DHT22;10712;52.944;9.098;2023-08-07T02:22:19;15.40;92.60
21108;DHT22;10712;52.944;9.098;2023-08-07T02:24:45;15.40;92.60
21108;DHT22;10712;52.944;9.098;2023-08-07T02:27:11;15.40;92.60
21108;DHT22;10712;52.944;9.098;2023-08-07T02:29:37;15.40;92.50
21108;DHT22;10712;52.944;9.098;2023-08-07T02:32:03;15.40;92.70
21108;DHT22;10712;52.944;9.098;2023-08-07T02:34:30;15.40;92.70
21108;DHT22;10712;52.944;9.098;2023-08-07T02:37:00;15.40;92.80
21108;DHT22;10712;52.944;9.098;2023-08-07T02:39:26;15.40;92.70
21108;DHT22;10712;52.944;9.098;2023-08-07T02:41:51;15.30;92.70
21108;DHT22;10712;52.944;9.098;2023-08-07T02:44:18;15.30;92.90
21108;DHT22;10712;52.944;9.098;2023-08-07T02:46:45;15.30;92.80
21108;DHT22;10712;52.944;9.098;2023-08-07T02:49:11;15.30;92.90
21108;DHT22;10712;52.944;9.098;2023-08-07T02:51:37;15.30;93.00
21108;DHT22;10712;52.944;9.098;2023-08-07T02:54:03;15.30;92.90
21108;DHT22;10712;52.944;9.098;2023-08-07T02:56:28;15.30;93.10
21108;DHT22;10712;52.944;9.098;2023-08-07T02:58:55;15.30;93.10
21108;DHT22;10712;52.944;9.098;2023-08-07T03:01:23;15.30;93.10
21108;DHT22;10712;52.944;9.098;2023-08-07T03:03:49;15.30;93.10
21108;DHT22;10712;52.944;9.098;2023-08-07T03:06:15;15.30;93.20
21108;DHT22;10712;52.944;9.098;2023-08-07T03:08:41;15.30;93.10
21108;DHT22;10712;52.944;9.098;2023-08-07T03:11:08;15.30;93.20
21108;DHT22;10712;52.944;9.098;2023-08-07T03:13:34;15.30;93.20
21108;DHT22;10712;52.944;9.098;2023-08-07T03:16:00;15.30;93.20
21108;DHT22;10712;52.944;9.098;2023-08-07T03:18:28;15.20;93.20
21108;DHT22;10712;52.944;9.098;2023-08-07T03:20:55;15.20;93.10
21108;DHT22;10712;52.944;9.098;2023-08-07T03:23:23;15.20;93.20
21108;DHT22;10712;52.944;9.098;2023-08-07T03:25:50;15.20;93.20
21108;DHT22;10712;52.944;9.098;2023-08-07T03:28:17;15.20;93.20
21108;DHT22;10712;52.944;9.098;2023-08-07T03:30:43;15.20;93.20
21108;DHT22;10712;52.944;9.098;2023-08-07T03:33:11;15.20;93.20
21108;DHT22;10712;52.944;9.098;2023-08-07T03:35:38;15.10;93.30
21108;DHT22;10712;52.944;9.098;2023-08-07T03:38:04;15.10;93.30
21108;DHT22;10712;52.944;9.098;2023-08-07T03:40:30;15.20;93.20
21108;DHT22;10712;52.944;9.098;2023-08-07T03:42:56;15.10;93.30
21108;DHT22;10712;52.944;9.098;2023-08-07T03:45:22;15.20;93.30
21108;DHT22;10712;52.944;9.098;2023-08-07T03:47:47;15.10;93.30
21108;DHT22;10712;52.944;9.098;2023-08-07T03:50:14;15.10;93.20
21108;DHT22;10712;52.944;9.098;2023-08-07T03:52:40;15.10;93.20
21108;DHT22;10712;52.944;9.098;2023-08-07T03:55:06;15.10;93.30
21108;DHT22;10712;52.944;9.098;2023-08-07T03:57:32;15.10;93.30
21108;DHT22;10712;52.944;9.098;2023-08-07T03:59:58;15.10;93.40
21108;DHT22;10712;52.944;9.098;2023-08-07T04:02:23;15.10;93.50
21108;DHT22;10712;52.944;9.098;2023-08-07T04:04:50;15.20;93.50
21108;DHT22;10712;52.944;9.098;2023-08-07T04:07:16;15.20;93.30
21108;DHT22;10712;52.944;9.098;2023-08-07T04:09:43;15.10;93.30
21108;DHT22;10712;52.944;9.098;2023-08-07T04:12:09;15.10;93.40
21108;DHT22;10712;52.944;9.098;2023-08-07T04:14:34;15.10;93.50
21108;DHT22;10712;52.944;9.098;2023-08-07T04:17:00;15.20;93.60
21108;DHT22;10712;52.944;9.098;2023-08-07T04:19:26;15.20;93.50
21108;DHT22;10712;52.944;9.098;2023-08-07T04:21:52;15.20;93.60
21108;DHT22;10712;52.944;9.098;2023-08-07T04:24:18;15.20;93.60
21108;DHT22;10712;52.944;9.098;2023-08-07T04:26:44;15.10;93.60
21108;DHT22;10712;52.944;9.098;2023-08-07T04:29:10;15.20;93.70
21108;DHT22;10712;52.944;9.098;2023-08-07T04:31:35;15.20;93.70
21108;DHT22;10712;52.944;9.098;2023-08-07T04:34:01;15.20;93.70
21108;DHT22;10712;52.944;9.098;2023-08-07T04:36:27;15.20;93.70
21108;DHT22;10712;52.944;9.098;2023-08-07T04:38:53;15.20;93.70
21108;DHT22;10712;52.944;9.098;2023-08-07T04:41:21;15.20;93.70
21108;DHT22;10712;52.944;9.098;2023-08-07T04:43:47;15.20;93.80
21108;DHT22;10712;52.944;9.098;2023-08-07T04:46:14;15.20;93.80
21108;DHT22;10712;52.944;9.098;2023-08-07T04:48:40;15.20;93.80
21108;DHT22;10712;52.944;9.098;2023-08-07T04:51:06;15.20;93.80
21108;DHT22;10712;52.944;9.098;2023-08-07T04:53:32;15.20;93.80
21108;DHT22;10712;52.944;9.098;2023-08-07T04:55:59;15.20;93.90
21108;DHT22;10712;52.944;9.098;2023-08-07T04:58:25;15.20;93.90
21108;DHT22;10712;52.944;9.098;2023-08-07T05:00:58;15.20;93.90
21108;DHT22;10712;52.944;9.098;2023-08-07T05:03:24;15.20;93.90
21108;DHT22;10712;52.944;9.098;2023-08-07T05:05:58;15.20;94.00
21108;DHT22;10712;52.944;9.098;2023-08-07T05:08:25;15.20;94.10
21108;DHT22;10712;52.944;9.098;2023-08-07T05:10:51;15.20;94.10
21108;DHT22;10712;52.944;9.098;2023-08-07T05:13:16;15.20;94.20
21108;DHT22;10712;52.944;9.098;2023-08-07T05:15:42;15.20;94.20
21108;DHT22;10712;52.944;9.098;2023-08-07T05:18:08;15.20;94.20
21108;DHT22;10712;52.944;9.098;2023-08-07T05:20:34;15.20;94.10
21108;DHT22;10712;52.944;9.098;2023-08-07T05:22:59;15.20;94.10
21108;DHT22;10712;52.944;9.098;2023-08-07T05:25:26;15.20;94.10
21108;DHT22;10712;52.944;9.098;2023-08-07T05:27:51;15.30;94.20
21108;DHT22;10712;52.944;9.098;2023-08-07T05:30:17;15.30;94.10
21108;DHT22;10712;52.944;9.098;2023-08-07T05:32:43;15.30;94.10
21108;DHT22;10712;52.944;9.098;2023-08-07T05:35:09;15.30;94.00
21108;DHT22;10712;52.944;9.098;2023-08-07T05:37:35;15.30;94.00
21108;DHT22;10712;52.944;9.098;2023-08-07T05:40:01;15.30;94.10
21108;DHT22;10712;52.944;9.098;2023-08-07T05:42:28;15.30;94.10
21108;DHT22;10712;52.944;9.098;2023-08-07T05:44:54;15.30;94.00
21108;DHT22;10712;52.944;9.098;2023-08-07T05:47:20;15.30;94.00
21108;DHT22;10712;52.944;9.098;2023-08-07T05:49:45;15.30;93.90
21108;DHT22;10712;52.944;9.098;2023-08-07T05:52:11;15.30;94.00
21108;DHT22;10712;52.944;9.098;2023-08-07T05:54:37;15.30;94.00
21108;DHT22;10712;52.944;9.098;2023-08-07T05:57:03;15.30;93.90
21108;DHT22;10712;52.944;9.098;2023-08-07T05:59:29;15.30;94.00
21108;DHT22;10712;52.944;9.098;2023-08-07T06:01:55;15.30;94.00
21108;DHT22;10712;52.944;9.098;2023-08-07T06:04:21;15.30;93.90
21108;DHT22;10712;52.944;9.098;2023-08-07T06:06:47;15.30;94.00
21108;DHT22;10712;52.944;9.098;2023-08-07T06:09:13;15.30;93.90
21108;DHT22;10712;52.944;9.098;2023-08-07T06:11:42;15.30;93.90
21108;DHT22;10712;52.944;9.098;2023-08-07T06:14:08;15.30;93.80
21108;DHT22;10712;52.944;9.098;2023-08-07T06:16:34;15.30;93.90
21108;DHT22;10712;52.944;9.098;2023-08-07T06:18:59;15.30;93.80
21108;DHT22;10712;52.944;9.098;2023-08-07T06:21:25;15.30;93.60
21108;DHT22;10712;52.944;9.098;2023-08-07T06:23:53;15.30;93.50
21108;DHT22;10712;52.944;9.098;2023-08-07T06:26:19;15.30;93.30
21108;DHT22;10712;52.944;9.098;2023-08-07T06:28:45;15.30;93.20
21108;DHT22;10712;52.944;9.098;2023-08-07T06:31:15;15.30;93.00
21108;DHT22;10712;52.944;9.098;2023-08-07T06:33:41;15.30;93.10
21108;DHT22;10712;52.944;9.098;2023-08-07T06:36:07;15.40;93.10
21108;DHT22;10712;52.944;9.098;2023-08-07T06:38:36;15.40;93.10
21108;DHT22;10712;52.944;9.098;2023-08-07T06:41:02;15.40;93.00
21108;DHT22;10712;52.944;9.098;2023-08-07T06:43:28;15.50;93.10
21108;DHT22;10712;52.944;9.098;2023-08-07T06:45:55;15.50;93.10
21108;DHT22;10712;52.944;9.098;2023-08-07T06:48:22;15.50;93.10
21108;DHT22;10712;52.944;9.098;2023-08-07T06:50:49;15.60;93.10
21108;DHT22;10712;52.944;9.098;2023-08-07T06:53:16;15.60;93.00
21108;DHT22;10712;52.944;9.098;2023-08-07T06:55:42;15.60;92.90
21108;DHT22;10712;52.944;9.098;2023-08-07T06:58:09;15.60;92.90
21108;DHT22;10712;52.944;9.098;2023-08-07T07:00:36;15.70;92.60
21108;DHT22;10712;52.944;9.098;2023-08-07T07:03:02;15.70;92.70
21108;DHT22;10712;52.944;9.098;2023-08-07T07:05:29;15.70;92.90
21108;DHT22;10712;52.944;9.098;2023-08-07T07:07:56;15.80;92.90
21108;DHT22;10712;52.944;9.098;2023-08-07T07:10:23;15.80;92.90
21108;DHT22;10712;52.944;9.098;2023-08-07T07:12:48;15.80;92.90
21108;DHT22;10712;52.944;9.098;2023-08-07T07:15:15;15.90;92.80
21108;DHT22;10712;52.944;9.098;2023-08-07T07:17:41;16.00;92.90
21108;DHT22;10712;52.944;9.098;2023-08-07T07:20:07;16.00;92.90
21108;DHT22;10712;52.944;9.098;2023-08-07T07:22:36;16.10;92.80
21108;DHT22;10712;52.944;9.098;2023-08-07T07:25:03;16.10;92.80
21108;DHT22;10712;52.944;9.098;2023-08-07T07:27:29;16.10;92.40
21108;DHT22;10712;52.944;9.098;2023-08-07T07:29:55;16.10;92.20
21108;DHT22;10712;52.944;9.098;2023-08-07T07:32:21;16.00;92.20
21108;DHT22;10712;52.944;9.098;2023-08-07T07:34:46;15.90;92.00
21108;DHT22;10712;52.944;9.098;2023-08-07T07:37:13;15.90;92.20
21108;DHT22;10712;52.944;9.098;2023-08-07T07:39:40;15.90;92.50
21108;DHT22;10712;52.944;9.098;2023-08-07T07:42:07;15.90;92.60
21108;DHT22;10712;52.944;9.098;2023-08-07T07:44:33;15.80;92.20
21108;DHT22;10712;52.944;9.098;2023-08-07T07:47:00;15.80;92.10
21108;DHT22;10712;52.944;9.098;2023-08-07T07:49:26;15.80;92.30
21108;DHT22;10712;52.944;9.098;2023-08-07T07:51:52;15.80;92.50
21108;DHT22;10712;52.944;9.098;2023-08-07T07:54:18;15.80;92.70
21108;DHT22;10712;52.944;9.098;2023-08-07T07:56:43;15.80;92.70
21108;DHT22;10712;52.944;9.098;2023-08-07T07:59:09;15.80;92.80
21108;DHT22;10712;52.944;9.098;2023-08-07T08:01:35;15.90;93.10
21108;DHT22;10712;52.944;9.098;2023-08-07T08:04:01;16.00;93.40
21108;DHT22;10712;52.944;9.098;2023-08-07T08:06:27;16.00;93.30
21108;DHT22;10712;52.944;9.098;2023-08-07T08:08:53;16.10;93.30
21108;DHT22;10712;52.944;9.098;2023-08-07T08:11:18;16.20;93.30
21108;DHT22;10712;52.944;9.098;2023-08-07T08:13:45;16.20;93.40
21108;DHT22;10712;52.944;9.098;2023-08-07T08:16:11;16.30;93.10
21108;DHT22;10712;52.944;9.098;2023-08-07T08:18:37;16.30;92.50
21108;DHT22;10712;52.944;9.098;2023-08-07T08:21:03;16.30;91.90
21108;DHT22;10712;52.944;9.098;2023-08-07T08:23:28;16.40;91.40
21108;DHT22;10712;52.944;9.098;2023-08-07T08:25:54;16.40;91.20
21108;DHT22;10712;52.944;9.098;2023-08-07T08:28:20;16.50;90.60
21108;DHT22;10712;52.944;9.098;2023-08-07T08:30:46;16.50;90.00
21108;DHT22;10712;52.944;9.098;2023-08-07T08:33:11;16.50;89.60
21108;DHT22;10712;52.944;9.098;2023-08-07T08:35:40;16.50;89.50
21108;DHT22;10712;52.944;9.098;2023-08-07T08:38:06;16.50;88.00
21108;DHT22;10712;52.944;9.098;2023-08-07T08:40:32;16.50;88.40
21108;DHT22;10712;52.944;9.098;2023-08-07T08:43:00;16.60;89.00
21108;DHT22;10712;52.944;9.098;2023-08-07T08:45:27;16.60;88.90
21108;DHT22;10712;52.944;9.098;2023-08-07T08:48:02;16.70;88.60
21108;DHT22;10712;52.944;9.098;2023-08-07T08:50:30;16.80;87.50
21108;DHT22;10712;52.944;9.098;2023-08-07T08:52:57;16.80;86.50
21108;DHT22;10712;52.944;9.098;2023-08-07T08:55:24;16.90;84.80
21108;DHT22;10712;52.944;9.098;2023-08-07T08:57:51;17.00;84.90
21108;DHT22;10712;52.944;9.098;2023-08-07T09:00:23;17.10;85.40
21108;DHT22;10712;52.944;9.098;2023-08-07T09:02:51;17.10;84.50
21108;DHT22;10712;52.944;9.098;2023-08-07T09:05:19;17.00;84.10
21108;DHT22;10712;52.944;9.098;2023-08-07T09:07:47;17.00;83.40
21108;DHT22;10712;52.944;9.098;2023-08-07T09:10:15;16.90;82.60
21108;DHT22;10712;52.944;9.098;2023-08-07T09:12:59;16.90;82.30
21108;DHT22;10712;52.944;9.098;2023-08-07T09:15:30;16.80;82.10
21108;DHT22;10712;52.944;9.098;2023-08-07T09:17:58;16.80;82.40
21108;DHT22;10712;52.944;9.098;2023-08-07T09:20:27;16.80;82.50
21108;DHT22;10712;52.944;9.098;2023-08-07T09:22:54;16.80;82.60
21108;DHT22;10712;52.944;9.098;2023-08-07T09:25:33;16.80;83.10
21108;DHT22;10712;52.944;9.098;2023-08-07T09:28:03;16.90;82.10
21108;DHT22;10712;52.944;9.098;2023-08-07T09:30:32;17.10;81.60
21108;DHT22;10712;52.944;9.098;2023-08-07T09:33:00;17.20;81.00
21108;DHT22;10712;52.944;9.098;2023-08-07T09:35:29;17.30;80.00
21108;DHT22;10712;52.944;9.098;2023-08-07T09:37:57;17.30;78.30
21108;DHT22;10712;52.944;9.098;2023-08-07T09:40:23;17.30;78.50
21108;DHT22;10712;52.944;9.098;2023-08-07T09:42:53;17.10;79.60
21108;DHT22;10712;52.944;9.098;2023-08-07T09:45:25;16.90;80.30
21108;DHT22;10712;52.944;9.098;2023-08-07T09:48:04;16.60;81.20
21108;DHT22;10712;52.944;9.098;2023-08-07T09:50:36;16.30;82.60
21108;DHT22;10712;52.944;9.098;2023-08-07T09:53:02;16.10;83.60
21108;DHT22;10712;52.944;9.098;2023-08-07T09:55:28;16.00;84.00
21108;DHT22;10712;52.944;9.098;2023-08-07T09:57:54;15.90;84.60
21108;DHT22;10712;52.944;9.098;2023-08-07T10:00:20;15.80;85.30
21108;DHT22;10712;52.944;9.098;2023-08-07T10:02:48;15.80;85.80
21108;DHT22;10712;52.944;9.098;2023-08-07T10:05:15;15.80;86.40
21108;DHT22;10712;52.944;9.098;2023-08-07T10:07:42;15.90;86.40
21108;DHT22;10712;52.944;9.098;2023-08-07T10:10:09;16.00;86.70
21108;DHT22;10712;52.944;9.098;2023-08-07T10:12:38;16.10;86.60
21108;DHT22;10712;52.944;9.098;2023-08-07T10:15:05;16.10;85.80
21108;DHT22;10712;52.944;9.098;2023-08-07T10:17:32;16.30;85.70
21108;DHT22;10712;52.944;9.098;2023-08-07T10:19:58;16.30;85.10
21108;DHT22;10712;52.944;9.098;2023-08-07T10:22:29;16.50;85.10
21108;DHT22;10712;52.944;9.098;2023-08-07T10:24:59;16.60;84.80
21108;DHT22;10712;52.944;9.098;2023-08-07T10:27:29;16.70;83.20
21108;DHT22;10712;52.944;9.098;2023-08-07T10:30:02;16.80;83.30
21108;DHT22;10712;52.944;9.098;2023-08-07T10:32:31;16.90;77.40
21108;DHT22;10712;52.944;9.098;2023-08-07T10:34:58;16.90;75.10
21108;DHT22;10712;52.944;9.098;2023-08-07T10:37:44;16.80;74.50
21108;DHT22;10712;52.944;9.098;2023-08-07T10:40:12;16.60;74.60
21108;DHT22;10712;52.944;9.098;2023-08-07T10:42:58;16.50;75.80
21108;DHT22;10712;52.944;9.098;2023-08-07T10:45:44;16.50;77.10
21108;DHT22;10712;52.944;9.098;2023-08-07T10:48:12;16.50;77.90
21108;DHT22;10712;52.944;9.098;2023-08-07T10:51:02;16.50;77.60
21108;DHT22;10712;52.944;9.098;2023-08-07T10:53:31;16.60;79.60
21108;DHT22;10712;52.944;9.098;2023-08-07T10:55:58;16.70;77.30
21108;DHT22;10712;52.944;9.098;2023-08-07T10:58:34;16.80;77.70
21108;DHT22;10712;52.944;9.098;2023-08-07T11:03:59;17.10;77.20
21108;DHT22;10712;52.944;9.098;2023-08-07T11:06:33;17.10;74.80
21108;DHT22;10712;52.944;9.098;2023-08-07T11:09:02;17.10;75.00
21108;DHT22;10712;52.944;9.098;2023-08-07T11:14:08;17.10;77.70
21108;DHT22;10712;52.944;9.098;2023-08-07T11:16:35;17.00;79.80
21108;DHT22;10712;52.944;9.098;2023-08-07T11:19:01;16.80;80.70
21108;DHT22;10712;52.944;9.098;2023-08-07T11:21:30;16.80;82.10
21108;DHT22;10712;52.944;9.098;2023-08-07T11:23:57;16.70;81.50
21108;DHT22;10712;52.944;9.098;2023-08-07T11:26:24;16.60;81.90
21108;DHT22;10712;52.944;9.098;2023-08-07T11:28:56;16.60;81.10
21108;DHT22;10712;52.944;9.098;2023-08-07T11:31:24;16.60;81.70
21108;DHT22;10712;52.944;9.098;2023-08-07T11:34:00;16.70;82.10
21108;DHT22;10712;52.944;9.098;2023-08-07T11:36:28;16.70;81.70
21108;DHT22;10712;52.944;9.098;2023-08-07T11:38:54;16.80;80.20
21108;DHT22;10712;52.944;9.098;2023-08-07T11:41:20;16.90;79.00
21108;DHT22;10712;52.944;9.098;2023-08-07T11:43:46;16.90;77.10
21108;DHT22;10712;52.944;9.098;2023-08-07T11:46:15;17.00;77.40
21108;DHT22;10712;52.944;9.098;2023-08-07T11:48:42;17.10;78.80
21108;DHT22;10712;52.944;9.098;2023-08-07T11:51:09;17.20;75.70
21108;DHT22;10712;52.944;9.098;2023-08-07T11:53:37;17.30;76.10
21108;DHT22;10712;52.944;9.098;2023-08-07T11:56:06;17.30;74.80
21108;DHT22;10712;52.944;9.098;2023-08-07T11:58:41;17.40;75.30
21108;DHT22;10712;52.944;9.098;2023-08-07T12:01:15;17.40;73.30
21108;DHT22;10712;52.944;9.098;2023-08-07T12:06:22;17.50;74.30
21108;DHT22;10712;52.944;9.098;2023-08-07T12:08:52;17.50;74.20
21108;DHT22;10712;52.944;9.098;2023-08-07T12:11:23;17.60;75.00
21108;DHT22;10712;52.944;9.098;2023-08-07T12:13:49;17.60;74.20
21108;DHT22;10712;52.944;9.098;2023-08-07T12:16:16;17.70;74.00
21108;DHT22;10712;52.944;9.098;2023-08-07T12:18:51;17.80;73.40
21108;DHT22;10712;52.944;9.098;2023-08-07T12:21:21;17.90;73.40
21108;DHT22;10712;52.944;9.098;2023-08-07T12:23:50;17.90;72.60
21108;DHT22;10712;52.944;9.098;2023-08-07T12:26:17;17.90;72.60
21108;DHT22;10712;52.944;9.098;2023-08-07T12:28:43;17.90;71.20
21108;DHT22;10712;52.944;9.098;2023-08-07T12:31:09;17.90;71.00
21108;DHT22;10712;52.944;9.098;2023-08-07T12:33:35;18.00;70.70
21108;DHT22;10712;52.944;9.098;2023-08-07T12:36:02;18.00;71.70
21108;DHT22;10712;52.944;9.098;2023-08-07T12:38:28;18.10;72.10
21108;DHT22;10712;52.944;9.098;2023-08-07T12:40:54;18.10;70.50
21108;DHT22;10712;52.944;9.098;2023-08-07T12:43:21;18.20;70.50
21108;DHT22;10712;52.944;9.098;2023-08-07T12:45:47;18.20;69.80
21108;DHT22;10712;52.944;9.098;2023-08-07T12:48:13;18.20;69.30
21108;DHT22;10712;52.944;9.098;2023-08-07T12:50:39;18.10;69.00
21108;DHT22;10712;52.944;9.098;2023-08-07T12:53:06;18.10;68.20
21108;DHT22;10712;52.944;9.098;2023-08-07T12:55:35;18.00;66.90
21108;DHT22;10712;52.944;9.098;2023-08-07T12:58:02;17.90;68.40
21108;DHT22;10712;52.944;9.098;2023-08-07T13:00:31;17.90;70.50
21108;DHT22;10712;52.944;9.098;2023-08-07T13:02:57;17.90;69.30
21108;DHT22;10712;52.944;9.098;2023-08-07T13:05:24;17.90;69.20
21108;DHT22;10712;52.944;9.098;2023-08-07T13:07:51;17.90;69.70
21108;DHT22;10712;52.944;9.098;2023-08-07T13:10:24;17.90;68.80
21108;DHT22;10712;52.944;9.098;2023-08-07T13:12:54;17.90;68.50
21108;DHT22;10712;52.944;9.098;2023-08-07T13:15:22;17.90;69.20
21108;DHT22;10712;52.944;9.098;2023-08-07T13:17:51;17.80;70.30
21108;DHT22;10712;52.944;9.098;2023-08-07T13:20:18;17.90;70.80
21108;DHT22;10712;52.944;9.098;2023-08-07T13:22:47;17.80;71.00
21108;DHT22;10712;52.944;9.098;2023-08-07T13:25:16;17.80;71.00
21108;DHT22;10712;52.944;9.098;2023-08-07T13:27:44;17.80;71.20
21108;DHT22;10712;52.944;9.098;2023-08-07T13:30:12;17.80;70.60
21108;DHT22;10712;52.944;9.098;2023-08-07T13:32:40;17.80;71.80
21108;DHT22;10712;52.944;9.098;2023-08-07T13:35:07;17.90;72.10
21108;DHT22;10712;52.944;9.098;2023-08-07T13:37:34;18.00;71.90
21108;DHT22;10712;52.944;9.098;2023-08-07T13:40:00;18.00;71.80
21108;DHT22;10712;52.944;9.098;2023-08-07T13:42:26;18.00;72.00
21108;DHT22;10712;52.944;9.098;2023-08-07T13:44:54;18.00;71.30
21108;DHT22;10712;52.944;9.098;2023-08-07T13:47:21;18.10;71.60
21108;DHT22;10712;52.944;9.098;2023-08-07T13:49:47;18.10;69.70
21108;DHT22;10712;52.944;9.098;2023-08-07T13:52:13;18.20;69.30
21108;DHT22;10712;52.944;9.098;2023-08-07T13:54:39;18.20;69.90
21108;DHT22;10712;52.944;9.098;2023-08-07T13:57:05;18.30;71.10
21108;DHT22;10712;52.944;9.098;2023-08-07T13:59:31;18.40;70.10
21108;DHT22;10712;52.944;9.098;2023-08-07T14:01:56;18.40;67.90
21108;DHT22;10712;52.944;9.098;2023-08-07T14:04:22;18.30;68.10
21108;DHT22;10712;52.944;9.098;2023-08-07T14:06:49;18.30;68.00
21108;DHT22;10712;52.944;9.098;2023-08-07T14:09:14;18.20;67.60
21108;DHT22;10712;52.944;9.098;2023-08-07T14:11:40;18.10;67.70
21108;DHT22;10712;52.944;9.098;2023-08-07T14:14:06;18.00;68.70
21108;DHT22;10712;52.944;9.098;2023-08-07T14:16:32;17.90;67.90
21108;DHT22;10712;52.944;9.098;2023-08-07T14:18:58;17.80;67.70
21108;DHT22;10712;52.944;9.098;2023-08-07T14:21:23;17.80;67.80
21108;DHT22;10712;52.944;9.098;2023-08-07T14:23:50;17.80;67.90
21108;DHT22;10712;52.944;9.098;2023-08-07T14:26:16;17.90;67.50
21108;DHT22;10712;52.944;9.098;2023-08-07T14:28:44;17.90;66.00
21108;DHT22;10712;52.944;9.098;2023-08-07T14:31:10;17.90;64.80
21108;DHT22;10712;52.944;9.098;2023-08-07T14:33:36;17.90;65.20
21108;DHT22;10712;52.944;9.098;2023-08-07T14:36:03;17.90;65.60
21108;DHT22;10712;52.944;9.098;2023-08-07T14:38:29;17.80;65.90
21108;DHT22;10712;52.944;9.098;2023-08-07T14:40:55;17.80;66.40
21108;DHT22;10712;52.944;9.098;2023-08-07T14:43:22;17.70;66.40
21108;DHT22;10712;52.944;9.098;2023-08-07T14:45:48;17.60;67.50
21108;DHT22;10712;52.944;9.098;2023-08-07T14:48:15;17.50;68.50
21108;DHT22;10712;52.944;9.098;2023-08-07T14:50:41;17.40;69.60
21108;DHT22;10712;52.944;9.098;2023-08-07T14:53:07;17.40;70.70
21108;DHT22;10712;52.944;9.098;2023-08-07T14:55:33;17.40;71.40
21108;DHT22;10712;52.944;9.098;2023-08-07T14:57:59;17.40;72.00
21108;DHT22;10712;52.944;9.098;2023-08-07T15:00:25;17.40;72.00
21108;DHT22;10712;52.944;9.098;2023-08-07T15:02:50;17.40;72.20
21108;DHT22;10712;52.944;9.098;2023-08-07T15:05:16;17.30;70.10
21108;DHT22;10712;52.944;9.098;2023-08-07T15:07:42;17.30;71.10
21108;DHT22;10712;52.944;9.098;2023-08-07T15:10:09;17.30;71.70
21108;DHT22;10712;52.944;9.098;2023-08-07T15:12:34;17.40;71.30
21108;DHT22;10712;52.944;9.098;2023-08-07T15:15:01;17.50;70.00
21108;DHT22;10712;52.944;9.098;2023-08-07T15:17:27;17.50;68.20
21108;DHT22;10712;52.944;9.098;2023-08-07T15:19:53;17.60;66.80
21108;DHT22;10712;52.944;9.098;2023-08-07T15:22:19;17.60;66.90
21108;DHT22;10712;52.944;9.098;2023-08-07T15:24:44;17.60;66.90
21108;DHT22;10712;52.944;9.098;2023-08-07T15:27:11;17.70;67.00
21108;DHT22;10712;52.944;9.098;2023-08-07T15:29:37;17.80;66.40
21108;DHT22;10712;52.944;9.098;2023-08-07T15:32:07;17.80;65.90
21108;DHT22;10712;52.944;9.098;2023-08-07T15:34:33;17.70;66.10
21108;DHT22;10712;52.944;9.098;2023-08-07T15:36:59;17.70;66.40
21108;DHT22;10712;52.944;9.098;2023-08-07T15:39:25;17.60;66.80
21108;DHT22;10712;52.944;9.098;2023-08-07T15:41:50;17.50;67.50
21108;DHT22;10712;52.944;9.098;2023-08-07T15:44:16;17.50;68.00